Time;durP1;ratioP1;P1;durP2;ratioP2;P2;SDS_P1;SDS_P2;PMS_P1;PMS_P2;Temp;Humidity;BMP_temperature;BMP_pressure;BME280_temperature;BME280_humidity;BME280_pressure;Samples;Min_cycle;Max_cycle;Signal;HPM_P1;HPM_P2
2022/02/21 00:00:17;;;;;;;16.08;6.10;;;;;;;7.30;61.34;97260.72;5110517;28;20024;-76
2022/02/21 00:02:45;;;;;;;8.52;4.10;;;;;;;7.35;61.36;97246.16;5110985;28;20117;-76
2022/02/21 00:05:12;;;;;;;16.83;6.90;;;;;;;7.35;61.14;97244.25;5110742;28;20026;-75
2022/02/21 00:07:37;;;;;;;12.38;5.15;;;;;;;7.40;60.51;97241.41;5106859;28;20050;-76
2022/02/21 00:10:05;;;;;;;16.60;7.22;;;;;;;7.39;60.20;97242.53;5091859;28;20463;-75
2022/02/21 00:12:30;;;;;;;5.95;3.20;;;;;;;7.42;59.94;97230.19;5110559;28;20414;-74
2022/02/21 00:14:56;;;;;;;7.18;3.25;;;;;;;7.46;60.37;97223.00;5107860;28;20522;-75
2022/02/21 00:17:21;;;;;;;4.03;1.65;;;;;;;7.50;59.57;97204.13;5110663;28;20028;-76
2022/02/21 00:19:47;;;;;;;3.28;1.70;;;;;;;7.55;59.14;97213.00;5111245;28;20029;-75
2022/02/21 00:22:12;;;;;;;7.20;3.75;;;;;;;7.60;59.27;97203.88;5111025;28;20031;-76
2022/02/21 00:24:37;;;;;;;3.45;1.73;;;;;;;7.64;58.59;97193.97;5111013;28;20028;-76
2022/02/21 00:27:03;;;;;;;4.85;2.50;;;;;;;7.66;58.83;97208.09;5111923;28;20028;-75
2022/02/21 00:29:29;;;;;;;3.55;1.50;;;;;;;7.65;58.66;97192.84;5111191;28;20028;-75
2022/02/21 00:31:55;;;;;;;2.63;1.42;;;;;;;7.69;59.01;97187.59;5110913;28;20035;-76
2022/02/21 00:34:21;;;;;;;2.95;1.70;;;;;;;7.69;58.77;97190.34;5110956;28;20038;-75
2022/02/21 00:36:46;;;;;;;2.53;1.63;;;;;;;7.68;59.53;97175.88;5110678;28;20135;-76
2022/02/21 00:39:12;;;;;;;3.75;2.05;;;;;;;7.67;59.30;97174.25;5112197;28;20084;-75
2022/02/21 00:41:37;;;;;;;4.07;2.03;;;;;;;7.66;59.10;97175.38;5114394;28;20468;-74
2022/02/21 00:44:03;;;;;;;3.85;1.80;;;;;;;7.66;59.38;97175.38;5114854;28;20035;-76
2022/02/21 00:46:28;;;;;;;3.17;1.40;;;;;;;7.69;59.29;97169.28;5114104;28;20437;-75
2022/02/21 00:48:54;;;;;;;2.72;1.50;;;;;;;7.69;59.90;97172.03;5114468;28;20383;-75
2022/02/21 00:51:19;;;;;;;2.80;1.48;;;;;;;7.71;58.97;97164.34;5114194;28;20072;-75
2022/02/21 00:53:44;;;;;;;3.00;1.50;;;;;;;7.75;58.76;97157.13;5114718;28;20395;-76
2022/02/21 00:56:11;;;;;;;2.95;1.50;;;;;;;7.79;58.23;97153.78;5114084;28;20403;-75
2022/02/21 00:58:36;;;;;;;3.80;1.33;;;;;;;7.83;58.00;97149.34;5114760;28;20032;-75
2022/02/21 01:01:02;;;;;;;2.63;1.27;;;;;;;7.85;57.18;97139.69;5114241;28;20038;-75
2022/02/21 01:03:28;;;;;;;2.38;1.88;;;;;;;7.91;57.68;97143.13;5113922;28;20023;-75
2022/02/21 01:05:53;;;;;;;2.58;1.38;;;;;;;7.92;57.12;97138.47;5113859;28;20019;-77
2022/02/21 01:08:18;;;;;;;3.53;1.80;;;;;;;7.97;56.67;97113.75;5114126;28;20065;-76
2022/02/21 01:10:44;;;;;;;3.85;2.30;;;;;;;8.02;57.18;97121.81;5114250;28;20051;-77
2022/02/21 01:13:10;;;;;;;2.22;1.65;;;;;;;8.03;56.43;97115.25;5114103;28;20094;-75
2022/02/21 01:15:35;;;;;;;3.08;1.80;;;;;;;8.04;56.83;97108.66;5114579;28;20382;-76
2022/02/21 01:18:01;;;;;;;3.58;1.80;;;;;;;8.07;56.64;97126.34;5114155;28;20392;-75
2022/02/21 01:20:26;;;;;;;3.15;1.50;;;;;;;8.08;56.59;97106.94;5113961;28;20023;-77
2022/02/21 01:22:52;;;;;;;2.70;1.40;;;;;;;8.07;56.52;97099.84;5114292;28;20055;-73
2022/02/21 01:25:17;;;;;;;1.60;1.20;;;;;;;8.07;56.95;97096.31;5116544;28;20111;-80
2022/02/21 01:27:43;;;;;;;2.35;1.20;;;;;;;8.03;57.48;97096.13;5117452;28;20020;-79
2022/02/21 01:30:10;;;;;;;1.63;1.10;;;;;;;8.03;57.35;97083.28;5118518;28;20373;-80
2022/02/21 01:32:36;;;;;;;3.65;1.90;;;;;;;7.99;58.15;97106.06;5118193;28;20030;-80
2022/02/21 01:35:03;;;;;;;1.48;0.80;;;;;;;7.97;58.51;97095.44;5118922;28;20027;-80
2022/02/21 01:37:28;;;;;;;1.45;0.90;;;;;;;7.94;58.42;97093.38;5120216;28;20016;-80
2022/02/21 01:39:54;;;;;;;1.77;1.10;;;;;;;7.87;58.56;97087.53;5124172;28;20098;-80
2022/02/21 01:42:19;;;;;;;1.88;1.05;;;;;;;7.87;58.56;97076.63;5121071;28;20044;-81
2022/02/21 01:44:48;;;;;;;2.47;1.30;;;;;;;7.83;59.26;97078.38;5102427;28;20031;-81
2022/02/21 01:47:19;;;;;;;1.40;0.80;;;;;;;7.85;59.40;97060.53;5120293;28;20463;-81
2022/02/21 01:49:46;;;;;;;1.55;0.90;;;;;;;7.84;59.29;97055.41;5125158;28;20034;-82
2022/02/21 01:52:12;;;;;;;2.13;0.82;;;;;;;7.78;58.96;97060.19;5128173;28;20519;-82
2022/02/21 01:54:38;;;;;;;2.55;1.27;;;;;;;7.73;59.59;97055.66;5131865;28;20034;-82
2022/02/21 01:57:05;;;;;;;1.67;1.00;;;;;;;7.65;60.31;97053.69;5131234;28;20067;-82
2022/02/21 01:59:36;;;;;;;2.10;0.95;;;;;;;7.64;59.99;97038.44;5131840;27;20554;-82
2022/02/21 02:02:02;;;;;;;2.08;1.25;;;;;;;7.64;60.19;97046.63;5127596;28;20035;-82
2022/02/21 02:04:27;;;;;;;2.42;1.60;;;;;;;7.67;60.43;97031.56;5125104;28;20029;-83
2022/02/21 02:06:53;;;;;;;2.45;1.00;;;;;;;7.66;60.10;97025.28;5129900;28;20083;-82
2022/02/21 02:09:19;;;;;;;1.92;1.08;;;;;;;7.67;60.20;97013.25;5131286;28;20133;-82
2022/02/21 02:11:45;;;;;;;2.38;0.90;;;;;;;7.66;60.44;97019.81;5127693;28;20491;-82
2022/02/21 02:14:29;;;;;;;1.63;1.00;;;;;;;7.66;60.36;97005.38;5131804;28;20039;-82
2022/02/21 02:16:55;;;;;;;1.15;0.73;;;;;;;7.60;60.70;96996.50;5131252;28;20065;-83
2022/02/21 02:19:20;;;;;;;2.25;1.10;;;;;;;7.49;61.69;96995.97;5134399;28;20019;-82
2022/02/21 02:21:51;;;;;;;1.77;1.30;;;;;;;7.39;61.94;96990.78;5131816;28;20030;-83
2022/02/21 02:24:16;;;;;;;1.25;0.98;;;;;;;7.35;62.68;97001.50;5131499;28;20020;-82
2022/02/21 02:26:42;;;;;;;2.08;1.00;;;;;;;7.28;62.68;96995.69;5133792;28;20024;-82
2022/02/21 02:29:07;;;;;;;1.98;1.05;;;;;;;7.22;63.42;96999.66;5130508;28;20031;-82
2022/02/21 02:31:33;;;;;;;2.22;1.63;;;;;;;7.22;62.89;96994.19;5131638;28;20091;-82
2022/02/21 02:33:58;;;;;;;0.82;0.80;;;;;;;7.28;62.60;96973.88;5124936;28;20035;-81
2022/02/21 02:36:24;;;;;;;2.17;0.90;;;;;;;7.28;62.30;96976.59;5130225;28;20037;-82
2022/02/21 02:38:49;;;;;;;2.30;1.40;;;;;;;7.33;61.92;96981.13;5128064;28;20042;-82
2022/02/21 02:41:14;;;;;;;2.30;1.58;;;;;;;7.37;62.21;96971.19;5129690;28;20690;-82
2022/02/21 02:43:40;;;;;;;2.92;1.40;;;;;;;7.40;62.04;96965.09;5129072;28;20039;-83
2022/02/21 02:46:06;;;;;;;2.78;1.73;;;;;;;7.39;62.19;96964.31;5112995;28;20044;-83
2022/02/21 02:48:33;;;;;;;2.28;1.30;;;;;;;7.39;62.35;96974.41;5130647;28;20031;-83
2022/02/21 02:50:58;;;;;;;2.22;0.90;;;;;;;7.41;62.11;96955.81;5131716;28;20031;-83
2022/02/21 02:53:24;;;;;;;1.45;1.00;;;;;;;7.40;62.78;96963.19;5114692;28;20070;-82
2022/02/21 02:55:49;;;;;;;2.35;1.20;;;;;;;7.37;65.15;96952.91;5128018;28;20019;-81
2022/02/21 02:58:15;;;;;;;1.35;0.80;;;;;;;7.33;67.01;96957.38;5130180;28;20027;-83
2022/02/21 03:00:40;;;;;;;1.48;0.95;;;;;;;7.24;66.93;96951.06;5130343;28;20026;-82
2022/02/21 03:03:06;;;;;;;1.33;0.80;;;;;;;7.20;66.19;96942.72;5130724;28;20012;-82
2022/02/21 03:05:31;;;;;;;1.20;0.85;;;;;;;7.16;65.06;96941.72;5114176;28;20035;-82
2022/02/21 03:07:57;;;;;;;1.05;0.80;;;;;;;7.12;65.10;96932.53;5113509;28;20031;-82
2022/02/21 03:10:22;;;;;;;1.13;0.70;;;;;;;7.06;65.85;96928.34;5113157;28;20082;-82
2022/02/21 03:12:47;;;;;;;1.13;1.00;;;;;;;6.92;66.70;96922.97;5113594;28;20034;-82
2022/02/21 03:15:13;;;;;;;2.20;0.90;;;;;;;6.76;67.62;96934.22;5113678;28;20476;-83
2022/02/21 03:17:38;;;;;;;2.20;0.80;;;;;;;6.64;68.15;96929.31;5110998;28;20031;-82
2022/02/21 03:20:04;;;;;;;0.80;0.50;;;;;;;6.55;68.85;96933.88;5110442;28;20034;-82
2022/02/21 03:22:30;;;;;;;1.90;0.93;;;;;;;6.51;68.67;96932.91;5111708;28;20448;-83
2022/02/21 03:24:58;;;;;;;1.30;0.90;;;;;;;6.48;69.35;96922.63;5119886;28;20032;-83
2022/02/21 03:27:23;;;;;;;1.02;0.80;;;;;;;6.46;70.32;96909.31;5133248;28;20027;-83
2022/02/21 03:29:49;;;;;;;1.35;1.10;;;;;;;6.47;69.79;96908.19;5116048;28;20023;-83
2022/02/21 03:32:14;;;;;;;1.98;1.08;;;;;;;6.45;69.79;96890.56;5133416;28;20489;-83
2022/02/21 03:34:40;;;;;;;1.73;0.90;;;;;;;6.47;69.39;96875.50;5112221;28;20034;-83
2022/02/21 03:37:06;;;;;;;0.85;0.70;;;;;;;6.49;69.30;96877.94;5111868;28;20108;-83
2022/02/21 03:39:32;;;;;;;1.42;1.10;;;;;;;6.57;69.00;96855.38;5111942;28;20019;-83
2022/02/21 03:41:57;;;;;;;1.70;0.90;;;;;;;6.66;68.34;96858.19;5111673;28;20472;-83
2022/02/21 03:44:22;;;;;;;1.25;0.90;;;;;;;6.70;68.46;96853.75;5111275;28;20031;-83
2022/02/21 03:46:48;;;;;;;2.00;0.98;;;;;;;6.77;68.03;96831.50;5111883;28;20036;-82
2022/02/21 03:49:13;;;;;;;2.42;1.23;;;;;;;6.83;67.70;96828.31;5111833;28;20023;-82
2022/02/21 03:51:39;;;;;;;1.17;0.80;;;;;;;6.88;67.30;96805.59;5111669;28;20035;-83
2022/02/21 03:54:06;;;;;;;1.77;0.90;;;;;;;6.93;67.11;96801.91;5111350;28;20054;-82
2022/02/21 03:56:32;;;;;;;4.82;1.20;;;;;;;6.97;67.36;96792.00;5111210;28;20043;-83
2022/02/21 03:58:57;;;;;;;1.30;1.02;;;;;;;7.02;66.97;96808.22;5110677;28;20020;-84
2022/02/21 04:01:23;;;;;;;1.08;0.65;;;;;;;7.06;66.95;96816.56;5110899;28;20146;-83
2022/02/21 04:03:48;;;;;;;1.10;0.70;;;;;;;7.10;66.79;96806.66;5110955;28;20027;-83
2022/02/21 04:06:14;;;;;;;2.22;1.08;;;;;;;7.15;66.50;96817.41;5110942;28;20059;-83
2022/02/21 04:08:39;;;;;;;2.58;0.82;;;;;;;7.15;66.12;96814.69;5111173;28;20588;-83
2022/02/21 04:11:05;;;;;;;1.55;1.17;;;;;;;7.20;66.06;96797.38;5110769;28;20020;-82
2022/02/21 04:13:30;;;;;;;2.22;0.95;;;;;;;7.24;65.96;96792.91;5110427;28;20035;-84
2022/02/21 04:15:56;;;;;;;2.45;0.88;;;;;;;7.27;66.13;96789.53;5110629;28;20024;-83
2022/02/21 04:18:21;;;;;;;2.03;0.98;;;;;;;7.26;67.36;96775.13;5111418;28;20015;-84
2022/02/21 04:20:47;;;;;;;1.15;0.80;;;;;;;7.26;67.49;96771.56;5110285;28;20024;-82
2022/02/21 04:23:12;;;;;;;3.40;1.30;;;;;;;7.27;67.02;96748.66;5111026;28;20089;-82
2022/02/21 04:25:38;;;;;;;1.90;1.10;;;;;;;7.31;66.42;96744.16;5110626;28;20023;-82
2022/02/21 04:28:03;;;;;;;4.03;1.27;;;;;;;7.33;66.11;96741.13;5110725;28;20116;-83
2022/02/21 04:30:30;;;;;;;2.75;1.08;;;;;;;7.39;65.49;96729.75;5110258;28;20111;-83
2022/02/21 04:32:56;;;;;;;2.95;1.35;;;;;;;7.43;65.01;96725.28;5110993;28;20035;-82
2022/02/21 04:35:23;;;;;;;2.45;1.10;;;;;;;7.45;64.76;96716.75;5111330;28;20035;-83
2022/02/21 04:37:50;;;;;;;1.65;1.02;;;;;;;7.51;64.05;96704.56;5110825;28;20414;-83
2022/02/21 04:40:21;;;;;;;2.85;1.30;;;;;;;7.57;63.97;96710.66;5110715;28;20390;-83
2022/02/21 04:42:48;;;;;;;2.90;1.45;;;;;;;7.62;63.43;96698.81;5110618;28;20051;-83
2022/02/21 04:45:14;;;;;;;1.83;0.88;;;;;;;7.62;62.90;96696.88;5110636;28;20020;-83
2022/02/21 04:47:39;;;;;;;3.05;1.10;;;;;;;7.65;62.75;96706.34;5110832;28;20502;-83
2022/02/21 04:50:06;;;;;;;1.92;1.13;;;;;;;7.69;62.10;96699.13;5110395;28;20030;-81
2022/02/21 04:52:32;;;;;;;1.55;0.85;;;;;;;7.74;61.76;96710.69;5110939;28;20032;-83
2022/02/21 04:54:58;;;;;;;2.50;1.08;;;;;;;7.76;62.09;96702.16;5091038;28;20365;-83
2022/02/21 04:57:23;;;;;;;2.25;1.13;;;;;;;7.74;62.08;96690.81;5110629;28;20046;-83
2022/02/21 04:59:49;;;;;;;2.60;1.10;;;;;;;7.67;62.68;96685.00;5110106;28;20028;-77
2022/02/21 05:02:14;;;;;;;2.65;1.27;;;;;;;7.61;63.14;96670.72;5109689;28;20089;-77
2022/02/21 05:04:40;;;;;;;2.53;1.20;;;;;;;7.57;63.43;96683.38;5106698;28;20048;-77
2022/02/21 05:07:05;;;;;;;2.75;1.33;;;;;;;7.58;63.02;96654.97;5108585;28;20037;-77
2022/02/21 05:09:30;;;;;;;3.15;1.50;;;;;;;7.56;63.51;96635.41;5110110;28;20064;-77
2022/02/21 05:11:56;;;;;;;3.72;1.60;;;;;;;7.53;63.57;96644.25;5110034;28;20016;-77
2022/02/21 05:14:21;;;;;;;3.10;1.20;;;;;;;7.57;62.87;96653.38;5110198;28;20382;-77
2022/02/21 05:16:47;;;;;;;4.28;1.38;;;;;;;7.59;63.24;96648.41;5091164;28;20531;-78
2022/02/21 05:19:12;;;;;;;3.70;1.55;;;;;;;7.64;62.10;96648.25;5110543;28;20088;-78
2022/02/21 05:21:38;;;;;;;2.15;0.82;;;;;;;7.74;61.36;96647.94;5109993;28;20388;-77
2022/02/21 05:24:03;;;;;;;3.63;1.33;;;;;;;7.79;61.95;96649.69;5110316;28;20027;-78
2022/02/21 05:26:29;;;;;;;2.08;1.08;;;;;;;7.79;61.60;96649.69;5111929;28;20023;-78
2022/02/21 05:28:54;;;;;;;1.83;1.00;;;;;;;7.84;61.44;96654.97;5114033;28;20463;-78
2022/02/21 05:31:21;;;;;;;1.88;1.02;;;;;;;7.87;61.03;96645.34;5113832;28;20027;-78
2022/02/21 05:33:47;;;;;;;1.45;0.80;;;;;;;7.92;59.98;96647.09;5113048;28;20031;-78
2022/02/21 05:36:12;;;;;;;1.60;0.70;;;;;;;7.94;59.63;96670.25;5113496;28;20360;-78
2022/02/21 05:38:38;;;;;;;2.20;0.90;;;;;;;8.01;59.84;96647.91;5113553;28;20055;-78
2022/02/21 05:41:03;;;;;;;1.30;0.90;;;;;;;8.02;60.35;96644.03;5113157;28;20038;-78
2022/02/21 05:43:28;;;;;;;2.17;0.52;;;;;;;8.05;59.26;96638.72;5114084;28;20027;-78
2022/02/21 05:45:54;;;;;;;4.63;1.90;;;;;;;8.08;59.92;96637.28;5113742;28;20030;-78
2022/02/21 05:48:19;;;;;;;1.15;0.88;;;;;;;8.08;59.59;96631.00;5113731;28;20042;-78
2022/02/21 05:50:46;;;;;;;4.00;2.15;;;;;;;8.06;60.25;96650.47;5113456;28;20032;-77
2022/02/21 05:53:12;;;;;;;4.60;1.90;;;;;;;8.04;59.74;96633.59;5113849;28;20391;-78
2022/02/21 05:55:37;;;;;;;3.35;1.50;;;;;;;8.03;60.03;96653.84;5113379;28;20020;-78
2022/02/21 05:58:03;;;;;;;3.20;1.55;;;;;;;7.99;60.20;96636.50;5113232;28;20047;-78
2022/02/21 06:00:29;;;;;;;3.00;1.70;;;;;;;7.92;60.99;96647.91;5113364;28;20023;-78
2022/02/21 06:02:54;;;;;;;3.58;2.10;;;;;;;7.88;61.00;96650.47;5095021;28;20058;-78
2022/02/21 06:05:20;;;;;;;1.30;0.80;;;;;;;7.87;61.12;96662.53;5112330;28;20026;-78
2022/02/21 06:07:45;;;;;;;2.92;1.60;;;;;;;7.90;61.24;96652.91;5113124;28;20059;-77
2022/02/21 06:10:11;;;;;;;2.10;1.30;;;;;;;7.90;61.26;96647.44;5112978;28;20088;-77
2022/02/21 06:12:36;;;;;;;2.30;1.00;;;;;;;7.95;60.77;96657.38;5112503;28;20055;-77
2022/02/21 06:15:02;;;;;;;2.17;1.45;;;;;;;7.96;60.58;96672.63;5112135;28;20542;-78
2022/02/21 06:17:28;;;;;;;21.30;6.95;;;;;;;7.96;60.80;96654.31;5113651;28;20051;-77
2022/02/21 06:19:53;;;;;;;2.70;1.58;;;;;;;7.96;61.55;96664.44;5112539;28;20475;-77
2022/02/21 06:22:20;;;;;;;5.03;1.60;;;;;;;7.84;62.92;96674.06;5112266;28;20464;-78
2022/02/21 06:24:45;;;;;;;8.88;4.05;;;;;;;7.70;63.75;96668.00;5111704;28;20467;-77
2022/02/21 06:27:11;;;;;;;12.35;5.47;;;;;;;7.54;64.37;96670.41;5112481;28;20083;-77
2022/02/21 06:29:37;;;;;;;5.78;2.42;;;;;;;7.40;65.08;96673.25;5111579;28;20028;-77
2022/02/21 06:32:03;;;;;;;8.02;3.58;;;;;;;7.26;66.42;96676.13;5111842;28;20035;-78
2022/02/21 06:34:28;;;;;;;3.55;1.95;;;;;;;7.10;66.71;96665.72;5111641;28;20024;-78
2022/02/21 06:36:54;;;;;;;4.38;2.28;;;;;;;7.04;67.37;96655.25;5111980;28;20061;-77
2022/02/21 06:39:19;;;;;;;3.10;1.48;;;;;;;6.99;67.70;96651.53;5112145;28;20106;-77
2022/02/21 06:41:49;;;;;;;4.20;1.30;;;;;;;6.97;68.29;96653.00;5111876;28;20060;-78
2022/02/21 06:44:15;;;;;;;3.45;2.40;;;;;;;6.90;69.43;96641.75;5108825;28;20027;-77
2022/02/21 06:46:41;;;;;;;5.80;2.50;;;;;;;6.80;70.92;96638.19;5111756;28;20357;-77
2022/02/21 06:49:06;;;;;;;2.78;1.80;;;;;;;6.75;71.06;96630.16;5111189;28;20016;-78
2022/02/21 06:51:35;;;;;;;4.88;2.67;;;;;;;6.77;71.52;96627.13;5111307;28;20042;-78
2022/02/21 06:54:01;;;;;;;3.67;1.77;;;;;;;6.82;70.03;96622.34;5109747;28;20030;-79
2022/02/21 06:56:26;;;;;;;3.33;1.60;;;;;;;6.90;69.19;96615.31;5110945;28;20040;-78
2022/02/21 06:58:52;;;;;;;3.70;1.70;;;;;;;7.00;67.88;96617.72;5111371;28;20038;-78
2022/02/21 07:01:17;;;;;;;2.63;1.38;;;;;;;7.08;67.45;96624.34;5111077;28;20137;-78
2022/02/21 07:03:42;;;;;;;3.55;1.50;;;;;;;7.19;67.24;96621.28;5109929;28;20024;-78
2022/02/21 07:06:09;;;;;;;5.53;1.85;;;;;;;7.22;66.91;96632.38;5111705;28;20031;-77
2022/02/21 07:08:34;;;;;;;4.35;1.45;;;;;;;7.33;65.92;96615.69;5110741;28;20039;-77
2022/02/21 07:11:01;;;;;;;2.88;1.65;;;;;;;7.41;65.86;96628.50;5104208;28;20082;-76
2022/02/21 07:13:27;;;;;;;3.72;1.52;;;;;;;7.48;64.59;96623.38;5091929;28;20106;-76
2022/02/21 07:15:52;;;;;;;4.03;1.42;;;;;;;7.57;63.72;96621.47;5109671;28;20107;-75
2022/02/21 07:18:18;;;;;;;3.80;1.52;;;;;;;7.64;63.58;96614.72;5109788;28;20030;-85
2022/02/21 07:20:43;;;;;;;4.18;1.60;;;;;;;7.67;63.96;96611.34;5108605;28;20019;-75
2022/02/21 07:23:09;;;;;;;2.95;1.27;;;;;;;7.67;63.78;96612.13;5109842;28;20027;-77
2022/02/21 07:25:34;;;;;;;3.30;1.35;;;;;;;7.67;63.79;96606.69;5108382;28;20026;-79
2022/02/21 07:28:00;;;;;;;3.58;1.33;;;;;;;7.69;63.27;96598.19;5091410;28;20027;-80
2022/02/21 07:30:30;;;;;;;3.17;1.27;;;;;;;7.74;63.23;96595.28;5109588;28;20118;-81
2022/02/21 07:32:56;;;;;;;3.45;1.80;;;;;;;7.75;63.30;96599.59;5108571;28;20035;-79
2022/02/21 07:35:22;;;;;;;2.00;1.33;;;;;;;7.78;63.22;96587.25;5108932;28;20421;-79
2022/02/21 07:37:47;;;;;;;3.38;1.48;;;;;;;7.83;62.63;96592.53;5108531;28;20029;-77
2022/02/21 07:40:14;;;;;;;5.50;2.65;;;;;;;7.82;62.62;96590.94;5109540;28;20026;-78
2022/02/21 07:42:43;;;;;;;5.10;3.00;;;;;;;7.87;62.79;96607.16;5109780;28;20024;-77
2022/02/21 07:45:09;;;;;;;3.80;2.30;;;;;;;7.86;62.56;96622.69;5109516;28;20027;-80
2022/02/21 07:47:42;;;;;;;4.22;2.22;;;;;;;7.87;63.30;96615.34;5109707;28;20103;-79
2022/02/21 07:50:08;;;;;;;15.85;8.18;;;;;;;7.88;62.86;96611.47;5106984;28;20364;-78
2022/02/21 07:52:33;;;;;;;8.88;4.35;;;;;;;7.89;62.78;96604.88;5108659;28;20068;-81
2022/02/21 07:54:59;;;;;;;5.05;2.30;;;;;;;7.91;63.18;96591.72;5109053;27;20047;-78
2022/02/21 07:57:24;;;;;;;9.07;4.70;;;;;;;7.94;62.40;96585.63;5108877;28;20476;-79
2022/02/21 07:59:50;;;;;;;13.88;6.10;;;;;;;7.96;62.48;96586.06;5108854;27;20085;-78
2022/02/21 08:02:16;;;;;;;10.90;4.45;;;;;;;7.97;62.25;96576.75;5105778;28;20483;-82
2022/02/21 08:04:41;;;;;;;16.70;7.88;;;;;;;7.99;62.40;96549.13;5088126;28;20110;-79
2022/02/21 08:07:06;;;;;;;5.13;2.22;;;;;;;8.01;62.60;96571.47;5107690;28;20455;-80
2022/02/21 08:09:32;;;;;;;6.93;3.15;;;;;;;8.04;62.59;96559.88;5107567;28;20023;-79
2022/02/21 08:11:57;;;;;;;7.63;3.45;;;;;;;8.01;62.63;96566.00;5107187;28;20059;-79
2022/02/21 08:14:23;;;;;;;3.53;1.88;;;;;;;8.04;62.40;96570.81;5107583;28;20047;-78
2022/02/21 08:16:48;;;;;;;6.63;2.75;;;;;;;8.07;61.92;96558.41;5103446;28;20039;-78
2022/02/21 08:19:13;;;;;;;5.90;2.65;;;;;;;8.06;62.77;96546.72;5110338;28;20042;-77
2022/02/21 08:21:39;;;;;;;6.00;3.22;;;;;;;8.06;62.44;96538.53;5109322;28;20027;-78
2022/02/21 08:24:06;;;;;;;6.10;3.17;;;;;;;8.09;62.94;96537.88;5109581;28;20440;-78
2022/02/21 08:26:32;;;;;;;5.43;3.15;;;;;;;8.11;62.76;96523.88;5108657;28;20445;-76
2022/02/21 08:28:58;;;;;;;7.65;2.47;;;;;;;8.13;62.87;96546.19;5110269;28;20061;-75
2022/02/21 08:31:23;;;;;;;6.47;2.45;;;;;;;8.15;63.11;96546.66;5108207;28;20024;-71
2022/02/21 08:33:49;;;;;;;6.75;2.70;;;;;;;8.18;62.66;96560.47;5107305;28;20073;-73
2022/02/21 08:36:14;;;;;;;5.53;2.40;;;;;;;8.22;63.03;96548.88;5108744;28;20026;-73
2022/02/21 08:38:39;;;;;;;4.75;2.50;;;;;;;8.24;62.48;96538.44;5109646;28;20016;-72
2022/02/21 08:41:05;;;;;;;3.80;2.00;;;;;;;8.27;62.53;96546.78;5110489;28;20027;-73
2022/02/21 08:43:32;;;;;;;5.30;3.03;;;;;;;8.28;62.78;96545.66;5108316;28;20716;-74
2022/02/21 08:45:57;;;;;;;4.72;2.20;;;;;;;8.33;62.21;96542.75;5090942;28;20023;-73
2022/02/21 08:48:25;;;;;;;5.05;2.45;;;;;;;8.34;62.07;96560.75;5108458;28;20035;-73
2022/02/21 08:50:51;;;;;;;5.47;2.75;;;;;;;8.38;62.20;96547.22;5077165;28;20046;-72
2022/02/21 08:53:18;;;;;;;5.88;3.75;;;;;;;8.41;62.50;96545.75;5109445;28;20031;-73
2022/02/21 08:55:43;;;;;;;6.03;2.10;;;;;;;8.47;62.01;96547.16;5109207;28;20024;-74
2022/02/21 08:58:09;;;;;;;3.13;1.70;;;;;;;8.50;61.16;96552.00;5109808;28;20388;-73
2022/02/21 09:00:34;;;;;;;5.60;2.72;;;;;;;8.52;62.31;96549.75;5113840;28;20027;-73
2022/02/21 09:03:00;;;;;;;4.28;1.80;;;;;;;8.51;61.22;96548.13;5112683;28;20031;-73
2022/02/21 09:05:25;;;;;;;5.82;2.13;;;;;;;8.54;61.14;96549.44;5111872;28;20031;-74
2022/02/21 09:07:52;;;;;;;4.57;2.00;;;;;;;8.53;61.82;96540.41;5111613;28;20039;-74
2022/02/21 09:10:17;;;;;;;4.25;2.35;;;;;;;8.52;61.66;96538.81;5111499;28;20531;-73
2022/02/21 09:12:43;;;;;;;4.47;2.20;;;;;;;8.51;61.97;96544.63;5110900;28;20023;-73
2022/02/21 09:15:08;;;;;;;4.50;2.10;;;;;;;8.47;61.50;96537.06;5111115;28;20012;-74
2022/02/21 09:17:34;;;;;;;5.57;2.10;;;;;;;8.50;61.19;96546.53;5092891;28;20073;-74
2022/02/21 09:19:59;;;;;;;4.50;2.63;;;;;;;8.47;61.46;96544.44;5111106;28;20546;-74
2022/02/21 09:22:25;;;;;;;3.83;2.10;;;;;;;8.47;61.18;96528.84;5112172;28;20027;-73
2022/02/21 09:24:50;;;;;;;4.88;2.00;;;;;;;8.51;61.64;96541.88;5112282;28;20024;-75
2022/02/21 09:27:16;;;;;;;4.75;2.53;;;;;;;8.56;61.72;96547.16;5112467;28;20543;-73
2022/02/21 09:29:46;;;;;;;4.70;1.90;;;;;;;8.57;61.10;96565.13;5111362;28;20039;-73
2022/02/21 09:32:11;;;;;;;6.50;3.10;;;;;;;8.57;61.73;96560.47;5111618;28;20126;-75
2022/02/21 09:34:37;;;;;;;5.75;2.70;;;;;;;8.58;60.73;96575.75;5110343;28;20102;-74
2022/02/21 09:37:02;;;;;;;6.75;3.03;;;;;;;8.56;61.51;96610.78;5111881;28;20062;-72
2022/02/21 09:39:28;;;;;;;6.88;2.60;;;;;;;8.43;63.01;96682.81;5111773;28;20032;-72
2022/02/21 09:41:55;;;;;;;10.32;4.00;;;;;;;7.96;63.44;96730.75;5093484;28;20523;-75
2022/02/21 09:44:20;;;;;;;9.20;3.90;;;;;;;6.62;65.64;96726.44;5113256;27;20061;-72
2022/02/21 09:46:48;;;;;;;5.80;3.28;;;;;;;5.32;67.37;96715.88;5111344;28;20161;-74
2022/02/21 09:49:16;;;;;;;2.75;1.35;;;;;;;4.67;69.81;96706.03;5107780;27;20020;-75
2022/02/21 09:51:42;;;;;;;6.03;2.05;;;;;;;4.30;73.08;96695.03;5109264;27;20039;-74
2022/02/21 09:54:14;;;;;;;8.18;2.33;;;;;;;4.10;73.63;96683.44;5111554;28;20044;-72
2022/02/21 09:56:41;;;;;;;7.85;2.40;;;;;;;4.09;75.49;96689.16;5110573;28;20510;-75
2022/02/21 09:59:06;;;;;;;5.30;2.13;;;;;;;4.01;76.63;96696.06;5110407;28;20027;-72
2022/02/21 10:01:38;;;;;;;5.97;1.80;;;;;;;4.02;76.08;96692.25;5107909;27;20472;-72
2022/02/21 10:04:04;;;;;;;7.05;1.60;;;;;;;4.03;77.10;96693.84;5090246;28;20039;-73
2022/02/21 10:06:30;;;;;;;4.85;2.35;;;;;;;4.04;77.03;96690.03;5108591;28;20016;-74
2022/02/21 10:08:56;;;;;;;5.80;2.88;;;;;;;4.07;77.48;96694.88;5109314;28;20101;-72
2022/02/21 10:11:29;;;;;;;8.02;3.88;;;;;;;4.13;77.19;96704.56;5108613;28;20161;-74
2022/02/21 10:14:00;;;;;;;5.72;2.88;;;;;;;4.21;77.57;96713.13;5108618;28;20023;-78
2022/02/21 10:16:36;;;;;;;7.80;4.30;;;;;;;4.27;76.55;96711.94;5101996;28;20475;-73
2022/02/21 10:19:21;;;;;;;6.63;3.15;;;;;;;4.30;76.95;96700.44;5107642;28;20064;-71
2022/02/21 10:22:01;;;;;;;5.85;3.00;;;;;;;4.32;78.05;96703.66;5110348;28;20027;-71
2022/02/21 10:24:41;;;;;;;3.17;1.30;;;;;;;4.35;77.94;96692.22;5106596;27;20107;-75
2022/02/21 10:27:22;;;;;;;2.83;1.90;;;;;;;4.36;77.19;96685.69;5108150;28;20070;-72
2022/02/21 10:29:48;;;;;;;4.30;2.10;;;;;;;4.41;77.56;96690.25;5107924;28;20566;-72
2022/02/21 10:32:15;;;;;;;3.90;2.00;;;;;;;4.42;78.06;96678.28;5105231;27;20107;-75
2022/02/21 10:34:45;;;;;;;5.63;2.72;;;;;;;4.47;77.20;96681.69;5096997;28;20035;-78
2022/02/21 10:37:10;;;;;;;9.00;3.88;;;;;;;4.55;77.96;96690.25;5103726;28;20031;-79
2022/02/21 10:39:36;;;;;;;7.55;3.50;;;;;;;4.61;78.32;96708.84;5104646;27;20056;-74
2022/02/21 10:42:06;;;;;;;8.13;3.70;;;;;;;4.67;79.00;96703.31;5104754;28;20498;-81
2022/02/21 10:44:36;;;;;;;12.38;4.75;;;;;;;4.75;77.93;96716.19;5109994;28;20039;-74
2022/02/21 10:47:17;;;;;;;7.95;3.65;;;;;;;4.84;79.21;96713.59;5110266;28;20110;-80
2022/02/21 10:49:51;;;;;;;9.63;4.13;;;;;;;4.93;78.16;96725.38;5091355;28;20020;-77
2022/02/21 10:52:24;;;;;;;41.17;15.20;;;;;;;5.02;78.66;96723.56;5110223;28;20027;-77
2022/02/21 10:54:51;;;;;;;26.60;9.57;;;;;;;5.12;78.85;96713.56;5109277;28;20023;-77
2022/02/21 10:57:18;;;;;;;21.70;7.57;;;;;;;5.24;77.65;96719.28;5109914;28;20116;-77
2022/02/21 10:59:45;;;;;;;9.50;3.13;;;;;;;5.36;76.38;96706.00;5110255;28;20111;-77
2022/02/21 11:02:15;;;;;;;14.77;5.00;;;;;;;5.47;76.60;96700.34;5107302;28;20024;-78
2022/02/21 11:04:42;;;;;;;10.52;3.97;;;;;;;5.56;75.94;96703.91;5110528;27;20012;-77
2022/02/21 11:07:07;;;;;;;12.27;4.90;;;;;;;5.63;76.50;96701.59;5107876;28;20027;-74
2022/02/21 11:09:34;;;;;;;9.60;4.95;;;;;;;5.69;75.26;96698.75;5108127;28;20061;-74
2022/02/21 11:12:03;;;;;;;10.82;4.18;;;;;;;5.76;74.70;96720.88;5108307;28;20026;-74
2022/02/21 11:14:30;;;;;;;9.30;4.47;;;;;;;5.82;74.35;96736.00;5090050;28;20443;-74
2022/02/21 11:16:58;;;;;;;9.50;4.93;;;;;;;5.85;74.44;96740.81;5110516;28;20096;-75
2022/02/21 11:19:24;;;;;;;11.13;5.03;;;;;;;5.87;74.15;96752.19;5090707;28;20122;-74
2022/02/21 11:21:51;;;;;;;6.75;3.30;;;;;;;5.91;74.28;96755.09;5110727;28;20031;-75
2022/02/21 11:24:23;;;;;;;8.75;3.95;;;;;;;5.93;73.43;96772.72;5109057;28;20662;-75
2022/02/21 11:27:01;;;;;;;21.23;9.40;;;;;;;5.99;73.35;96772.59;5109974;28;20031;-75
2022/02/21 11:29:42;;;;;;;18.48;7.65;;;;;;;6.07;72.68;96799.13;5091655;28;20051;-81
2022/02/21 11:32:21;;;;;;;11.52;4.53;;;;;;;6.12;72.52;96812.59;5110520;28;20081;-75
2022/02/21 11:34:48;;;;;;;5.15;2.10;;;;;;;6.15;69.32;96819.34;5110008;28;20027;-75
2022/02/21 11:37:31;;;;;;;5.43;2.05;;;;;;;6.11;69.25;96819.16;5109817;28;20028;-75